Albion, Idaho
Current Conditions -  °F | °C
As of 4:53 PM on Saturday 25 Oct 2014 (Local Time) from KBYI Reporting Station
Clear Clear  
Wind Chill: 71°   Ceiling: Unl
Heat Index: 71°   Visibility: 10mi
Dew Point: 33°   Wind: 14mph
Humidity: 25%   Direction: 180°S
Pressure: 29.84"   Gusts: NA
Location:  42.41°N, 113.58°W
Report Text: KBYI 252253Z AUTO 18012KT 10SM CLR 22/01 A2984 RMK AO2 SLP075 T02170006
Loading
Personal Weather Stations






























Interactive Weather Map New forecast layout! Learn more

10-Day Weather Forecast

Advertisements
Track Severe Weather on mobile